METAR Analyzer

一覧表示

Hello, Guest. (Login)

NZSP  -  アムンゼン・スコット基地

観測日時
2021-11-28 18:50 (UTC) (59分前)
気温
-32
露点
データなし
湿数
データなし
相対湿度
データなし
QNH
968.2hPa
推定現地気圧
681.9hPa
推定海面気圧
1005.2hPa
体感温度
データなし
HI
データなし
気温前日比
データなし
体感温度前日比
データなし
HI前日比
データなし
水平視程
>10000m
鉛直視程
データなし
雲底高度
6000ft AGL
V/I
VMC (VFR)
RVR
No RVR data
卓越風
5kt from 350°
ガスト
No gust
降水
報告なし
その他の天気
報告なし
全天を覆う雲 @ 6000ft AGL

NZSP 281850Z 35005KT 9999 OVC060 M32/ A2859 RMK SKWY WNDS ESTMD CLN AIR 35004KT ALL WNDS GRID SDF/HDF

SCRM/TNM  -  エドゥアルド・フレイ・モンタルバ基地

観測日時
2021-11-28 19:00 (UTC) (49分前)
気温
1
露点
1
湿数
0
相対湿度
100%
QNH
979hPa
推定現地気圧
973.8hPa
推定海面気圧
979.3hPa
体感温度
-19.1
(無風時)
4.5
HI
-0.2
気温前日比
±0
体感温度前日比
-0.1
HI前日比
+0.2
水平視程
300m
鉛直視程
300ft
雲底高度
データなし
V/I
判定不可
RVR
No RVR data
卓越風
20kt from 10°
ガスト
No gust
降水
報告なし
その他の天気
報告なし

SCRM 281900Z 01020KT 0300 FG VV003 01/01 Q0979 NOSIG

102.3msec